createdAt,value
2019-04-30T00:00:10.152Z,10.10
2019-04-30T00:02:42.046Z,10.10
2019-04-30T00:05:15.210Z,10.20
2019-04-30T00:07:41.327Z,10.10
2019-04-30T00:10:10.483Z,10.10
2019-04-30T00:12:39.698Z,10.10
2019-04-30T00:15:10.890Z,10.10
2019-04-30T00:17:39.088Z,10.10
2019-04-30T00:20:07.910Z,10.10
2019-04-30T00:22:41.267Z,10.10
2019-04-30T00:25:07.346Z,10.00
2019-04-30T00:27:36.161Z,10.00
2019-04-30T00:30:09.000Z,10.10
2019-04-30T00:32:43.468Z,10.00
2019-04-30T00:35:11.822Z,10.10
2019-04-30T00:37:38.526Z,10.00
2019-04-30T00:40:07.383Z,10.00
2019-04-30T00:42:36.371Z,9.90
2019-04-30T00:45:10.029Z,9.90
2019-04-30T00:47:39.438Z,10.00
2019-04-30T00:50:10.236Z,10.00
2019-04-30T00:52:39.097Z,10.00
2019-04-30T00:55:09.336Z,10.00
2019-04-30T00:57:43.821Z,10.10
2019-04-30T01:00:12.177Z,10.10
2019-04-30T01:03:05.232Z,10.20
2019-04-30T01:05:31.533Z,10.20
2019-04-30T01:08:00.342Z,10.20
2019-04-30T01:10:29.158Z,10.20
2019-04-30T01:13:01.804Z,10.20
2019-04-30T01:15:29.170Z,10.20
2019-04-30T01:17:59.370Z,10.20
2019-04-30T01:20:32.668Z,10.10
2019-04-30T01:23:03.153Z,10.10
2019-04-30T01:25:30.956Z,10.10
2019-04-30T01:27:59.936Z,10.20
2019-04-30T01:30:28.736Z,10.10
2019-04-30T01:33:01.051Z,10.10
2019-04-30T01:35:31.495Z,10.10
2019-04-30T01:37:59.623Z,10.10
2019-04-30T01:40:28.903Z,10.10
2019-04-30T01:42:59.317Z,10.00
2019-04-30T01:45:31.601Z,9.90
2019-04-30T01:48:05.325Z,9.90
2019-04-30T01:50:29.284Z,9.90
2019-04-30T01:52:59.121Z,9.90
2019-04-30T01:55:45.057Z,10.00
2019-04-30T01:58:19.389Z,10.00
2019-04-30T02:00:49.919Z,10.00
2019-04-30T02:03:19.345Z,10.00
2019-04-30T02:05:49.838Z,10.00
2019-04-30T02:08:19.549Z,10.00
2019-04-30T02:10:49.198Z,10.00
2019-04-30T02:13:19.072Z,10.00
2019-04-30T02:15:49.262Z,10.00
2019-04-30T02:18:19.532Z,10.00
2019-04-30T02:20:49.717Z,10.00
2019-04-30T02:23:19.606Z,10.00
2019-04-30T02:25:49.115Z,10.10
2019-04-30T02:28:19.019Z,10.10
2019-04-30T02:30:50.515Z,10.00
2019-04-30T02:33:19.822Z,10.10
2019-04-30T02:35:56.619Z,10.00
2019-04-30T02:38:39.494Z,10.00
2019-04-30T02:41:09.971Z,10.00
2019-04-30T02:43:42.106Z,10.00
2019-04-30T02:46:13.189Z,10.10
2019-04-30T02:48:43.318Z,10.10
2019-04-30T02:51:14.026Z,10.10
2019-04-30T02:54:03.647Z,10.00
2019-04-30T02:56:32.999Z,10.10
2019-04-30T02:59:03.770Z,10.20
2019-04-30T03:01:32.302Z,10.10
2019-04-30T03:04:01.196Z,10.20
2019-04-30T03:06:30.580Z,10.10
2019-04-30T03:09:01.160Z,10.00
2019-04-30T03:11:30.446Z,10.00
2019-04-30T03:13:59.560Z,10.00
2019-04-30T03:16:30.420Z,10.00
2019-04-30T03:19:03.917Z,10.00
2019-04-30T03:21:43.249Z,9.90
2019-04-30T03:24:15.091Z,9.90
2019-04-30T03:26:43.931Z,9.90
2019-04-30T03:29:12.783Z,9.90
2019-04-30T03:31:44.984Z,9.80
2019-04-30T03:34:18.044Z,9.80
2019-04-30T03:36:42.590Z,9.80
2019-04-30T03:39:11.497Z,9.80
2019-04-30T03:41:41.207Z,9.90
2019-04-30T03:44:18.555Z,9.80
2019-04-30T03:46:40.980Z,9.80
2019-04-30T03:49:10.608Z,9.90
2019-04-30T03:51:40.580Z,10.00
2019-04-30T03:54:10.377Z,9.90
2019-04-30T03:56:40.512Z,9.90
2019-04-30T03:59:10.510Z,9.90
2019-04-30T04:01:59.576Z,9.90
2019-04-30T04:04:30.945Z,9.90
2019-04-30T04:07:16.543Z,9.90
2019-04-30T04:09:56.151Z,9.90
2019-04-30T04:12:25.860Z,9.80
2019-04-30T04:14:54.616Z,10.00
2019-04-30T04:17:23.732Z,9.90
2019-04-30T04:19:54.061Z,9.80
2019-04-30T04:22:22.767Z,9.90
2019-04-30T04:24:51.615Z,9.80
2019-04-30T04:27:20.376Z,9.80
2019-04-30T04:29:50.974Z,9.80
2019-04-30T04:32:23.596Z,9.80
2019-04-30T04:34:50.688Z,9.80
2019-04-30T04:37:20.330Z,9.80
2019-04-30T04:39:50.118Z,9.80
2019-04-30T04:42:19.920Z,9.70
2019-04-30T04:44:50.253Z,9.70
2019-04-30T04:47:20.109Z,9.70
2019-04-30T04:49:53.022Z,9.70
2019-04-30T04:52:21.442Z,9.70
2019-04-30T04:54:50.959Z,9.80
2019-04-30T04:57:22.794Z,9.80
2019-04-30T04:59:50.590Z,9.80
2019-04-30T05:02:39.659Z,9.80
2019-04-30T05:05:09.631Z,9.70
2019-04-30T05:07:39.876Z,9.80
2019-04-30T05:10:09.847Z,9.80
2019-04-30T05:12:39.893Z,9.80
2019-04-30T05:15:09.592Z,9.80
2019-04-30T05:17:39.851Z,9.90
2019-04-30T05:20:09.968Z,9.80
2019-04-30T05:22:39.174Z,9.80
2019-04-30T05:25:08.821Z,9.90
2019-04-30T05:27:39.316Z,9.90
2019-04-30T05:30:09.713Z,9.90
2019-04-30T05:32:39.603Z,9.90
2019-04-30T05:35:09.527Z,9.90
2019-04-30T05:37:38.707Z,9.90
2019-04-30T05:40:09.195Z,9.90
2019-04-30T05:42:38.703Z,9.90
2019-04-30T05:45:09.294Z,9.90
2019-04-30T05:47:39.048Z,9.90
2019-04-30T05:50:09.243Z,10.00
2019-04-30T05:52:39.697Z,10.00
2019-04-30T05:55:08.849Z,10.10
2019-04-30T05:57:43.308Z,10.20
2019-04-30T06:00:10.050Z,10.10
2019-04-30T06:02:40.058Z,10.20
2019-04-30T06:05:09.692Z,10.20
2019-04-30T06:07:59.325Z,10.20
2019-04-30T06:10:35.860Z,10.20
2019-04-30T06:13:09.770Z,10.20
2019-04-30T06:15:40.408Z,10.20
2019-04-30T06:18:13.561Z,10.20
2019-04-30T06:20:39.821Z,10.20
2019-04-30T06:23:09.551Z,10.20
2019-04-30T06:25:55.646Z,10.20
2019-04-30T06:28:09.793Z,10.20
2019-04-30T06:30:39.698Z,10.30
2019-04-30T06:33:09.314Z,10.20
2019-04-30T06:35:40.158Z,10.00
2019-04-30T06:38:08.898Z,10.10
2019-04-30T06:40:39.139Z,10.10
2019-04-30T06:43:09.186Z,10.10
2019-04-30T06:45:38.811Z,10.20
2019-04-30T06:48:08.907Z,10.20
2019-04-30T06:50:39.326Z,10.30
2019-04-30T06:53:09.318Z,10.30
2019-04-30T06:55:39.249Z,10.30
2019-04-30T06:58:14.229Z,10.40
2019-04-30T07:00:40.425Z,10.40
2019-04-30T07:03:10.021Z,10.30
2019-04-30T07:05:39.250Z,10.40
2019-04-30T07:08:38.975Z,10.30
2019-04-30T07:11:16.117Z,10.20
2019-04-30T07:13:49.528Z,10.20
2019-04-30T07:16:20.357Z,10.30
2019-04-30T07:18:49.413Z,10.30
2019-04-30T07:21:19.772Z,10.30
2019-04-30T07:23:48.782Z,10.50
2019-04-30T07:26:19.815Z,10.60
2019-04-30T07:28:54.234Z,10.60
2019-04-30T07:31:19.196Z,10.70
2019-04-30T07:33:53.455Z,10.70
2019-04-30T07:36:19.668Z,10.70
2019-04-30T07:38:54.551Z,10.80
2019-04-30T07:41:19.132Z,10.90
2019-04-30T07:43:49.401Z,10.90
2019-04-30T07:46:20.016Z,11.10
2019-04-30T07:48:50.208Z,11.10
2019-04-30T07:51:21.049Z,11.20
2019-04-30T07:53:50.005Z,11.30
2019-04-30T07:56:25.729Z,11.20
2019-04-30T07:58:50.473Z,11.10
2019-04-30T08:01:19.775Z,11.20
2019-04-30T08:03:53.806Z,11.20
2019-04-30T08:06:23.115Z,11.30
2019-04-30T08:08:57.233Z,11.30
2019-04-30T08:11:26.181Z,11.20
2019-04-30T08:13:53.087Z,11.30
2019-04-30T08:16:22.138Z,11.50
2019-04-30T08:18:50.994Z,11.60
2019-04-30T08:21:19.805Z,11.60
2019-04-30T08:23:49.028Z,11.60
2019-04-30T08:26:18.790Z,11.60
2019-04-30T08:28:48.735Z,11.60
2019-04-30T08:31:19.538Z,11.70
2019-04-30T08:33:49.092Z,11.80
2019-04-30T08:36:19.680Z,11.70
2019-04-30T08:38:49.528Z,11.70
2019-04-30T08:41:19.316Z,11.70
2019-04-30T08:43:49.648Z,11.60
2019-04-30T08:46:19.161Z,11.50
2019-04-30T08:48:51.595Z,11.50
2019-04-30T08:51:19.262Z,11.50
2019-04-30T08:53:48.725Z,11.60
2019-04-30T08:56:21.606Z,11.60
2019-04-30T08:58:49.116Z,11.60
2019-04-30T09:01:19.626Z,11.70
2019-04-30T09:03:51.315Z,11.70
2019-04-30T09:06:22.101Z,11.70
2019-04-30T09:08:51.491Z,11.70
2019-04-30T09:11:27.250Z,11.80
2019-04-30T09:13:50.844Z,11.90
2019-04-30T09:16:19.591Z,12.00
2019-04-30T09:18:49.495Z,12.00
2019-04-30T09:21:18.755Z,12.00
2019-04-30T09:23:51.951Z,12.00
2019-04-30T09:26:18.807Z,12.10
2019-04-30T09:28:49.470Z,12.20
2019-04-30T09:31:19.766Z,12.30
2019-04-30T09:33:49.328Z,12.30
2019-04-30T09:36:20.597Z,12.30
2019-04-30T09:38:48.634Z,12.30
2019-04-30T09:41:19.188Z,12.50
2019-04-30T09:43:49.390Z,12.60
2019-04-30T09:46:26.324Z,12.60
2019-04-30T09:48:50.685Z,12.70
2019-04-30T09:51:20.630Z,12.80
2019-04-30T09:53:56.807Z,12.80
2019-04-30T09:56:21.867Z,12.90
2019-04-30T09:58:50.607Z,12.90
2019-04-30T10:01:21.921Z,13.00
2019-04-30T10:03:50.633Z,13.00
2019-04-30T10:06:19.949Z,13.00
2019-04-30T10:08:51.260Z,13.00
2019-04-30T10:11:32.653Z,13.00
2019-04-30T10:14:01.479Z,12.90
2019-04-30T10:16:31.848Z,12.90
2019-04-30T10:19:01.409Z,13.00
2019-04-30T10:21:30.513Z,13.00
2019-04-30T10:24:12.570Z,12.90
2019-04-30T10:26:29.839Z,12.70
2019-04-30T10:29:02.210Z,12.50
2019-04-30T10:31:30.992Z,12.50
2019-04-30T10:33:59.821Z,12.60
2019-04-30T10:36:29.538Z,12.70
2019-04-30T10:38:59.511Z,12.80
2019-04-30T10:41:29.040Z,12.90
2019-04-30T10:43:59.095Z,12.90
2019-04-30T10:46:28.076Z,13.00
2019-04-30T10:48:57.042Z,13.00
2019-04-30T10:51:25.901Z,13.10
2019-04-30T10:53:54.705Z,13.10
2019-04-30T10:56:23.486Z,13.30
2019-04-30T10:58:52.303Z,13.30
2019-04-30T11:01:21.130Z,13.40
2019-04-30T11:03:49.974Z,13.60
2019-04-30T11:06:19.207Z,13.60
2019-04-30T11:08:48.207Z,13.70
2019-04-30T11:11:17.214Z,13.80
2019-04-30T11:13:45.993Z,13.80
2019-04-30T11:16:15.614Z,13.80
2019-04-30T11:18:44.851Z,13.80
2019-04-30T11:21:15.673Z,13.70
2019-04-30T11:23:44.985Z,13.80
2019-04-30T11:26:14.700Z,13.80
2019-04-30T11:28:44.308Z,13.90
2019-04-30T11:31:24.257Z,14.00
2019-04-30T11:33:55.866Z,14.00
2019-04-30T11:36:29.206Z,14.00
2019-04-30T11:38:58.716Z,13.90
2019-04-30T11:41:31.104Z,14.00
2019-04-30T11:43:59.458Z,14.00
2019-04-30T11:46:34.388Z,14.10
2019-04-30T11:49:03.211Z,14.20
2019-04-30T11:51:31.986Z,14.30
2019-04-30T11:54:00.846Z,14.40
2019-04-30T11:56:29.588Z,14.30
2019-04-30T11:58:58.954Z,14.30
2019-04-30T12:01:29.631Z,14.40
2019-04-30T12:03:59.859Z,14.40
2019-04-30T12:06:28.812Z,14.50
2019-04-30T12:08:59.234Z,14.60
2019-04-30T12:11:32.426Z,14.70
2019-04-30T12:14:01.238Z,14.70
2019-04-30T12:16:30.052Z,14.60
2019-04-30T12:19:00.589Z,14.60
2019-04-30T12:21:29.223Z,14.70
2019-04-30T12:23:58.345Z,14.70
2019-04-30T12:26:28.866Z,14.80
2019-04-30T12:28:57.551Z,14.80
2019-04-30T12:31:26.863Z,14.70
2019-04-30T12:33:55.734Z,14.60
2019-04-30T12:36:24.516Z,14.70
2019-04-30T12:38:53.392Z,14.70
2019-04-30T12:41:22.192Z,14.70
2019-04-30T12:43:51.031Z,14.90
2019-04-30T12:46:21.295Z,15.00
2019-04-30T12:48:54.872Z,15.10
2019-04-30T12:51:45.876Z,15.20
2019-04-30T12:54:24.654Z,15.30
2019-04-30T12:57:04.175Z,15.30
2019-04-30T12:59:33.067Z,15.30
2019-04-30T13:02:01.882Z,15.40
2019-04-30T13:04:30.732Z,15.30
2019-04-30T13:07:02.054Z,15.40
2019-04-30T13:09:30.910Z,15.40
2019-04-30T13:12:01.227Z,15.60
2019-04-30T13:14:31.392Z,15.80
2019-04-30T13:17:00.797Z,16.00
2019-04-30T13:19:29.650Z,16.20
2019-04-30T13:22:00.720Z,16.40
2019-04-30T13:24:31.368Z,16.50
2019-04-30T13:27:00.270Z,16.60
2019-04-30T13:29:30.648Z,16.70
2019-04-30T13:31:59.482Z,16.80
2019-04-30T13:34:48.150Z,17.00
2019-04-30T13:37:16.952Z,17.00
2019-04-30T13:39:53.777Z,17.20
2019-04-30T13:42:24.178Z,17.30
2019-04-30T13:44:52.949Z,17.20
2019-04-30T13:47:21.823Z,17.30
2019-04-30T13:49:50.634Z,17.60
2019-04-30T13:52:19.450Z,17.60
2019-04-30T13:54:48.415Z,17.50
2019-04-30T13:57:17.179Z,17.30
2019-04-30T13:59:46.029Z,17.30
2019-04-30T14:02:15.676Z,17.40
2019-04-30T14:05:02.035Z,17.30
2019-04-30T14:07:49.625Z,17.40
2019-04-30T14:10:19.554Z,17.50
2019-04-30T14:12:53.587Z,17.50
2019-04-30T14:15:22.655Z,17.40
2019-04-30T14:17:51.439Z,17.40
2019-04-30T14:20:20.387Z,17.40
2019-04-30T14:22:49.221Z,17.50
2019-04-30T14:25:18.215Z,17.50
2019-04-30T14:27:51.727Z,17.40
2019-04-30T14:30:19.217Z,17.50
2019-04-30T14:32:50.606Z,17.70
2019-04-30T14:35:18.749Z,17.90
2019-04-30T14:37:49.658Z,18.10
2019-04-30T14:40:20.220Z,18.40
2019-04-30T14:42:57.276Z,18.80
2019-04-30T14:45:28.741Z,19.00
2019-04-30T14:48:03.261Z,19.00
2019-04-30T14:50:34.098Z,19.00
2019-04-30T14:53:04.533Z,19.00
2019-04-30T14:55:43.876Z,19.00
2019-04-30T14:58:17.220Z,19.00
2019-04-30T15:00:50.336Z,18.90
2019-04-30T15:03:20.776Z,18.70
2019-04-30T15:05:51.670Z,18.50
2019-04-30T15:08:20.082Z,18.30
2019-04-30T15:10:48.895Z,18.30
2019-04-30T15:13:19.386Z,17.90
2019-04-30T15:15:49.162Z,17.60
2019-04-30T15:18:19.159Z,17.60
2019-04-30T15:20:49.814Z,17.90
2019-04-30T15:23:21.896Z,18.40
2019-04-30T15:25:50.965Z,18.70
2019-04-30T15:28:19.781Z,18.70
2019-04-30T15:30:48.896Z,18.60
2019-04-30T15:33:19.598Z,18.50
2019-04-30T15:35:50.229Z,18.70
2019-04-30T15:38:19.348Z,19.10
2019-04-30T15:40:48.340Z,19.60
2019-04-30T15:43:18.722Z,19.90
2019-04-30T15:45:49.387Z,20.00
2019-04-30T15:48:19.623Z,19.80
2019-04-30T15:50:49.283Z,19.90
2019-04-30T15:53:19.392Z,20.00
2019-04-30T15:55:48.449Z,19.70
2019-04-30T15:58:24.715Z,19.50
2019-04-30T16:00:53.572Z,19.40
2019-04-30T16:03:26.723Z,19.10
2019-04-30T16:05:56.600Z,18.70
2019-04-30T16:08:28.942Z,18.30
2019-04-30T16:11:15.281Z,18.20
2019-04-30T16:13:49.521Z,18.20
2019-04-30T16:16:20.029Z,18.10
2019-04-30T16:18:50.445Z,18.00
2019-04-30T16:21:19.519Z,18.20
2019-04-30T16:23:49.100Z,18.10
2019-04-30T16:26:18.246Z,18.00
2019-04-30T16:28:49.352Z,17.90
2019-04-30T16:31:20.296Z,17.80
2019-04-30T16:33:49.142Z,17.70
2019-04-30T16:36:19.309Z,17.40
2019-04-30T16:38:49.828Z,17.20
2019-04-30T16:41:30.709Z,17.10
2019-04-30T16:43:49.359Z,16.80
2019-04-30T16:46:18.389Z,16.50
2019-04-30T16:48:49.143Z,16.20
2019-04-30T16:51:18.814Z,16.20
2019-04-30T16:53:48.672Z,16.10
2019-04-30T16:56:18.606Z,16.00
2019-04-30T16:59:00.089Z,15.70
2019-04-30T17:01:29.695Z,15.70
2019-04-30T17:04:03.251Z,15.70
2019-04-30T17:06:36.564Z,15.70
2019-04-30T17:09:08.555Z,15.60
2019-04-30T17:11:55.250Z,15.60
2019-04-30T17:14:26.323Z,15.60
2019-04-30T17:16:55.275Z,15.70
2019-04-30T17:19:24.040Z,15.70
2019-04-30T17:21:52.830Z,15.80
2019-04-30T17:24:21.747Z,15.80
2019-04-30T17:26:52.021Z,15.90
2019-04-30T17:29:20.834Z,15.80
2019-04-30T17:31:49.709Z,15.80
2019-04-30T17:34:20.105Z,15.90
2019-04-30T17:36:49.588Z,16.00
2019-04-30T17:39:20.196Z,16.00
2019-04-30T17:41:49.708Z,16.10
2019-04-30T17:44:18.803Z,16.20
2019-04-30T17:46:49.245Z,16.30
2019-04-30T17:49:18.970Z,16.30
2019-04-30T17:51:49.063Z,16.40
2019-04-30T17:54:17.983Z,16.50
2019-04-30T17:56:47.831Z,16.50
2019-04-30T17:59:18.262Z,16.60
2019-04-30T18:01:49.633Z,16.50
2019-04-30T18:04:18.738Z,16.50
2019-04-30T18:06:50.505Z,16.60
2019-04-30T18:09:19.535Z,16.60
2019-04-30T18:11:49.557Z,16.60
2019-04-30T18:14:18.810Z,16.60
2019-04-30T18:16:48.627Z,16.60
2019-04-30T18:19:24.836Z,16.60
2019-04-30T18:21:55.382Z,16.60
2019-04-30T18:24:31.464Z,16.60
2019-04-30T18:27:04.443Z,16.60
2019-04-30T18:29:33.247Z,16.60
2019-04-30T18:32:02.081Z,16.60
2019-04-30T18:34:31.091Z,16.60
2019-04-30T18:36:59.918Z,16.60
2019-04-30T18:39:28.949Z,16.60
2019-04-30T18:41:58.071Z,16.60
2019-04-30T18:44:26.812Z,16.60
2019-04-30T18:46:55.630Z,16.60
2019-04-30T18:49:24.479Z,16.60
2019-04-30T18:51:53.267Z,16.50
2019-04-30T18:54:22.114Z,16.50
2019-04-30T18:56:50.958Z,16.50
2019-04-30T18:59:19.765Z,16.50
2019-04-30T19:01:48.589Z,16.40
2019-04-30T19:04:18.950Z,16.50
2019-04-30T19:06:47.904Z,16.50
2019-04-30T19:09:21.080Z,16.50
2019-04-30T19:11:51.497Z,16.40
2019-04-30T19:14:24.672Z,16.40
2019-04-30T19:17:00.886Z,16.40
2019-04-30T19:19:34.274Z,16.40
2019-04-30T19:22:03.092Z,16.30
2019-04-30T19:24:31.871Z,16.30
2019-04-30T19:27:00.701Z,16.20
2019-04-30T19:29:29.521Z,16.20
2019-04-30T19:31:59.436Z,16.20
2019-04-30T19:34:29.612Z,16.20
2019-04-30T19:36:58.906Z,16.20
2019-04-30T19:39:29.253Z,16.10
2019-04-30T19:41:58.386Z,16.10
2019-04-30T19:44:29.339Z,16.10
2019-04-30T19:46:58.659Z,16.00
2019-04-30T19:49:29.850Z,16.00
2019-04-30T19:52:08.460Z,16.00
2019-04-30T19:54:30.765Z,16.00
2019-04-30T19:56:59.522Z,16.00
2019-04-30T19:59:29.412Z,16.00
2019-04-30T20:01:59.497Z,16.00
2019-04-30T20:04:34.173Z,15.90
2019-04-30T20:06:59.172Z,16.00
2019-04-30T20:09:29.537Z,15.90
2019-04-30T20:11:59.750Z,15.90
2019-04-30T20:14:29.409Z,16.00
2019-04-30T20:16:59.014Z,15.90
2019-04-30T20:19:28.983Z,15.90
2019-04-30T20:21:59.429Z,15.90
2019-04-30T20:24:29.514Z,15.90
2019-04-30T20:27:07.035Z,15.80
2019-04-30T20:29:30.706Z,15.40
2019-04-30T20:32:32.928Z,15.00
2019-04-30T20:34:50.557Z,14.50
2019-04-30T20:37:19.706Z,14.20
2019-04-30T20:39:50.419Z,14.10
2019-04-30T20:42:19.229Z,14.00
2019-04-30T20:44:48.950Z,13.90
2019-04-30T20:47:18.421Z,13.70
2019-04-30T20:49:49.019Z,13.60
2019-04-30T20:52:20.407Z,13.40
2019-04-30T20:54:48.883Z,13.20
2019-04-30T20:57:19.934Z,13.10
2019-04-30T20:59:48.865Z,13.10
2019-04-30T21:02:18.774Z,13.10
2019-04-30T21:04:48.214Z,13.00
2019-04-30T21:07:19.514Z,12.90
2019-04-30T21:09:48.880Z,12.80
2019-04-30T21:12:18.724Z,12.90
2019-04-30T21:14:48.539Z,12.90
2019-04-30T21:17:17.614Z,12.90
2019-04-30T21:19:46.469Z,13.00
2019-04-30T21:22:15.216Z,13.10
2019-04-30T21:24:44.044Z,13.00
2019-04-30T21:27:12.937Z,13.00
2019-04-30T21:29:41.781Z,13.00
2019-04-30T21:32:13.314Z,13.00
2019-04-30T21:34:46.550Z,12.90
2019-04-30T21:37:15.463Z,12.90
2019-04-30T21:39:44.205Z,12.90
2019-04-30T21:42:13.061Z,12.90
2019-04-30T21:44:41.893Z,12.90
2019-04-30T21:47:10.723Z,12.90
2019-04-30T21:49:42.443Z,12.90
2019-04-30T21:52:11.177Z,12.90
2019-04-30T21:54:40.014Z,12.90
2019-04-30T21:57:08.908Z,12.90
2019-04-30T21:59:38.816Z,13.00
2019-04-30T22:02:08.813Z,12.90
2019-04-30T22:04:37.652Z,12.90
2019-04-30T22:07:06.488Z,13.00
2019-04-30T22:09:35.239Z,13.00
2019-04-30T22:12:04.191Z,13.00
2019-04-30T22:14:33.003Z,12.90
2019-04-30T22:17:01.830Z,12.90
2019-04-30T22:19:30.661Z,12.90
2019-04-30T22:21:59.551Z,13.00
2019-04-30T22:24:30.367Z,13.00
2019-04-30T22:26:58.775Z,13.00
2019-04-30T22:29:38.772Z,12.90
2019-04-30T22:31:59.396Z,12.80
2019-04-30T22:34:28.802Z,12.90
2019-04-30T22:36:58.668Z,12.90
2019-04-30T22:39:29.915Z,12.80
2019-04-30T22:42:01.022Z,12.90
2019-04-30T22:44:29.867Z,12.90
2019-04-30T22:47:00.659Z,13.00
2019-04-30T22:49:29.214Z,13.00
2019-04-30T22:51:58.026Z,13.00
2019-04-30T22:54:26.828Z,13.00
2019-04-30T22:56:55.679Z,13.10
2019-04-30T22:59:24.372Z,13.00
2019-04-30T23:02:11.272Z,13.00
2019-04-30T23:04:41.690Z,13.00
2019-04-30T23:07:10.428Z,13.10
2019-04-30T23:09:39.314Z,13.00
2019-04-30T23:12:08.136Z,13.00
2019-04-30T23:14:36.956Z,13.10
2019-04-30T23:17:06.209Z,13.00
2019-04-30T23:19:35.020Z,13.00
2019-04-30T23:22:04.487Z,13.00
2019-04-30T23:24:33.327Z,13.00
2019-04-30T23:27:02.164Z,13.00
2019-04-30T23:29:30.902Z,13.10
2019-04-30T23:31:59.750Z,13.00
2019-04-30T23:34:28.489Z,13.00
2019-04-30T23:36:57.320Z,13.00
2019-04-30T23:39:26.292Z,13.10
2019-04-30T23:41:55.323Z,13.10
2019-04-30T23:44:24.137Z,13.10
2019-04-30T23:46:53.056Z,13.20
2019-04-30T23:49:21.935Z,13.20
2019-04-30T23:51:50.775Z,13.20
2019-04-30T23:54:21.714Z,13.20
2019-04-30T23:56:50.616Z,13.20
2019-04-30T23:59:19.402Z,13.30
